sensor_id;sensor_type;location;lat;lon;timestamp;pressure;altitude;pressure_sealevel;temperature;humidity
20015;BME280;61787;42.022;23.078;2022-10-16T00:00:35;97434.09;;;9.44;89.13
20015;BME280;61787;42.022;23.078;2022-10-16T00:01:37;97433.50;;;9.47;89.15
20015;BME280;61787;42.022;23.078;2022-10-16T00:02:39;97429.88;;;9.43;89.16
20015;BME280;61787;42.022;23.078;2022-10-16T00:03:42;97430.03;;;9.47;88.93
20015;BME280;61787;42.022;23.078;2022-10-16T00:04:44;97431.63;;;9.48;88.67
20015;BME280;61787;42.022;23.078;2022-10-16T00:05:46;97427.50;;;9.41;88.44
20015;BME280;61787;42.022;23.078;2022-10-16T00:06:48;97435.81;;;9.40;89.56
20015;BME280;61787;42.022;23.078;2022-10-16T00:07:49;97431.69;;;9.34;89.39
20015;BME280;61787;42.022;23.078;2022-10-16T00:08:51;97435.50;;;9.33;89.73
20015;BME280;61787;42.022;23.078;2022-10-16T00:09:53;97442.75;;;9.41;89.71
20015;BME280;61787;42.022;23.078;2022-10-16T00:11:05;97433.63;;;9.42;88.70
20015;BME280;61787;42.022;23.078;2022-10-16T00:12:07;97440.72;;;9.38;88.92
20015;BME280;61787;42.022;23.078;2022-10-16T00:13:09;97433.28;;;9.35;89.38
20015;BME280;61787;42.022;23.078;2022-10-16T00:14:13;97432.50;;;9.34;89.60
20015;BME280;61787;42.022;23.078;2022-10-16T00:15:15;97439.44;;;9.35;89.62
20015;BME280;61787;42.022;23.078;2022-10-16T00:16:18;97434.88;;;9.36;89.71
20015;BME280;61787;42.022;23.078;2022-10-16T00:17:19;97439.00;;;9.42;89.47
20015;BME280;61787;42.022;23.078;2022-10-16T00:18:21;97450.22;;;9.53;89.50
20015;BME280;61787;42.022;23.078;2022-10-16T00:19:23;97435.44;;;9.64;88.65
20015;BME280;61787;42.022;23.078;2022-10-16T00:20:24;97443.34;;;9.69;87.53
20015;BME280;61787;42.022;23.078;2022-10-16T00:21:28;97437.78;;;9.65;87.51
20015;BME280;61787;42.022;23.078;2022-10-16T00:22:30;97443.78;;;9.62;87.84
20015;BME280;61787;42.022;23.078;2022-10-16T00:23:32;97439.66;;;9.56;87.45
20015;BME280;61787;42.022;23.078;2022-10-16T00:24:33;97440.47;;;9.57;88.61
20015;BME280;61787;42.022;23.078;2022-10-16T00:25:35;97449.88;;;9.54;88.31
20015;BME280;61787;42.022;23.078;2022-10-16T00:26:38;97451.59;;;9.50;88.83
20015;BME280;61787;42.022;23.078;2022-10-16T00:27:40;97451.94;;;9.49;88.20
20015;BME280;61787;42.022;23.078;2022-10-16T00:28:42;97453.03;;;9.48;87.54
20015;BME280;61787;42.022;23.078;2022-10-16T00:29:43;97455.88;;;9.51;87.42
20015;BME280;61787;42.022;23.078;2022-10-16T00:30:45;97454.50;;;9.62;87.43
20015;BME280;61787;42.022;23.078;2022-10-16T00:31:46;97450.59;;;9.68;86.96
20015;BME280;61787;42.022;23.078;2022-10-16T00:32:48;97453.72;;;9.70;87.49
20015;BME280;61787;42.022;23.078;2022-10-16T00:33:50;97443.78;;;9.62;87.01
20015;BME280;61787;42.022;23.078;2022-10-16T00:34:52;97449.63;;;9.64;87.51
20015;BME280;61787;42.022;23.078;2022-10-16T00:35:58;97450.09;;;9.66;87.58
20015;BME280;61787;42.022;23.078;2022-10-16T00:37:00;97453.28;;;9.77;86.30
20015;BME280;61787;42.022;23.078;2022-10-16T00:38:01;97448.91;;;9.90;85.90
20015;BME280;61787;42.022;23.078;2022-10-16T00:39:03;97450.47;;;9.91;85.13
20015;BME280;61787;42.022;23.078;2022-10-16T00:40:05;97448.91;;;9.90;85.26
20015;BME280;61787;42.022;23.078;2022-10-16T00:41:09;97446.84;;;9.87;84.88
20015;BME280;61787;42.022;23.078;2022-10-16T00:42:15;97446.81;;;9.78;85.37
20015;BME280;61787;42.022;23.078;2022-10-16T00:44:51;97449.59;;;9.56;87.05
20015;BME280;61787;42.022;23.078;2022-10-16T00:45:53;97452.56;;;9.54;86.99
20015;BME280;61787;42.022;23.078;2022-10-16T00:46:55;97458.25;;;9.61;86.73
20015;BME280;61787;42.022;23.078;2022-10-16T00:47:57;97459.41;;;9.69;86.56
20015;BME280;61787;42.022;23.078;2022-10-16T00:49:05;97466.81;;;9.80;86.21
20015;BME280;61787;42.022;23.078;2022-10-16T00:50:13;97464.03;;;9.94;85.78
20015;BME280;61787;42.022;23.078;2022-10-16T00:51:19;97466.41;;;10.04;85.07
20015;BME280;61787;42.022;23.078;2022-10-16T00:52:23;97467.38;;;10.08;85.23
20015;BME280;61787;42.022;23.078;2022-10-16T00:53:25;97465.81;;;10.16;84.86
20015;BME280;61787;42.022;23.078;2022-10-16T00:54:31;97474.47;;;10.13;85.08
20015;BME280;61787;42.022;23.078;2022-10-16T00:55:33;97470.06;;;10.17;84.41
20015;BME280;61787;42.022;23.078;2022-10-16T00:56:41;97470.69;;;10.14;84.61
20015;BME280;61787;42.022;23.078;2022-10-16T00:57:43;97479.53;;;10.23;84.18
20015;BME280;61787;42.022;23.078;2022-10-16T00:58:45;97471.50;;;10.32;82.91
20015;BME280;61787;42.022;23.078;2022-10-16T00:59:47;97478.63;;;10.36;83.78
20015;BME280;61787;42.022;23.078;2022-10-16T01:00:49;97480.66;;;10.39;83.56
20015;BME280;61787;42.022;23.078;2022-10-16T01:01:51;97472.63;;;10.39;82.25
20015;BME280;61787;42.022;23.078;2022-10-16T01:02:59;97483.19;;;10.44;82.18
20015;BME280;61787;42.022;23.078;2022-10-16T01:04:01;97479.25;;;10.50;82.53
20015;BME280;61787;42.022;23.078;2022-10-16T01:05:04;97485.41;;;10.51;82.85
20015;BME280;61787;42.022;23.078;2022-10-16T01:06:31;97481.44;;;10.31;83.26
20015;BME280;61787;42.022;23.078;2022-10-16T01:10:27;97476.88;;;10.57;81.47
20015;BME280;61787;42.022;23.078;2022-10-16T01:11:46;97476.41;;;10.64;81.22
20015;BME280;61787;42.022;23.078;2022-10-16T01:13:27;97483.03;;;10.41;81.85
20015;BME280;61787;42.022;23.078;2022-10-16T01:14:56;97481.13;;;10.24;82.63
20015;BME280;61787;42.022;23.078;2022-10-16T01:17:53;97476.06;;;9.66;84.73
20015;BME280;61787;42.022;23.078;2022-10-16T01:19:08;97486.09;;;9.43;86.54
20015;BME280;61787;42.022;23.078;2022-10-16T01:20:23;97486.94;;;9.30;88.09
20015;BME280;61787;42.022;23.078;2022-10-16T01:21:36;97489.63;;;9.30;87.55
20015;BME280;61787;42.022;23.078;2022-10-16T01:28:11;97486.19;;;9.77;86.10
20015;BME280;61787;42.022;23.078;2022-10-16T01:29:26;97488.59;;;9.88;84.70
20015;BME280;61787;42.022;23.078;2022-10-16T01:30:32;97485.78;;;9.93;84.30
20015;BME280;61787;42.022;23.078;2022-10-16T01:31:36;97483.91;;;10.02;83.67
20015;BME280;61787;42.022;23.078;2022-10-16T01:33:51;97484.56;;;10.16;82.00
20015;BME280;61787;42.022;23.078;2022-10-16T01:35:14;97485.41;;;10.25;81.22
20015;BME280;61787;42.022;23.078;2022-10-16T01:36:25;97479.09;;;10.30;80.66
20015;BME280;61787;42.022;23.078;2022-10-16T01:37:46;97485.09;;;10.35;79.55
20015;BME280;61787;42.022;23.078;2022-10-16T01:38:52;97493.94;;;10.36;79.95
20015;BME280;61787;42.022;23.078;2022-10-16T01:39:58;97488.56;;;10.36;80.35
20015;BME280;61787;42.022;23.078;2022-10-16T01:41:09;97490.13;;;10.37;80.17
20015;BME280;61787;42.022;23.078;2022-10-16T01:42:19;97487.78;;;10.35;79.99
20015;BME280;61787;42.022;23.078;2022-10-16T01:43:50;97496.28;;;10.37;80.17
20015;BME280;61787;42.022;23.078;2022-10-16T01:44:54;97490.44;;;10.44;79.09
20015;BME280;61787;42.022;23.078;2022-10-16T01:45:58;97489.03;;;10.46;79.21
20015;BME280;61787;42.022;23.078;2022-10-16T01:47:00;97491.56;;;10.51;78.93
20015;BME280;61787;42.022;23.078;2022-10-16T01:48:04;97494.56;;;10.58;78.36
20015;BME280;61787;42.022;23.078;2022-10-16T01:49:08;97492.81;;;10.62;78.87
20015;BME280;61787;42.022;23.078;2022-10-16T01:50:12;97494.41;;;10.63;78.05
20015;BME280;61787;42.022;23.078;2022-10-16T01:51:17;97495.97;;;10.64;78.06
20015;BME280;61787;42.022;23.078;2022-10-16T01:52:23;97499.59;;;10.60;77.80
20015;BME280;61787;42.022;23.078;2022-10-16T01:53:29;97487.16;;;10.55;78.49
20015;BME280;61787;42.022;23.078;2022-10-16T01:54:32;97488.41;;;10.49;78.52
20015;BME280;61787;42.022;23.078;2022-10-16T01:55:38;97491.69;;;10.38;79.02
20015;BME280;61787;42.022;23.078;2022-10-16T01:56:45;97486.78;;;10.31;78.49
20015;BME280;61787;42.022;23.078;2022-10-16T01:57:50;97489.78;;;10.21;79.46
20015;BME280;61787;42.022;23.078;2022-10-16T01:58:56;97487.59;;;10.23;79.81
20015;BME280;61787;42.022;23.078;2022-10-16T02:00:03;97485.84;;;10.27;78.50
20015;BME280;61787;42.022;23.078;2022-10-16T02:01:07;97489.03;;;10.29;78.99
20015;BME280;61787;42.022;23.078;2022-10-16T02:02:11;97487.44;;;10.28;78.49
20015;BME280;61787;42.022;23.078;2022-10-16T02:03:16;97492.00;;;10.27;78.51
20015;BME280;61787;42.022;23.078;2022-10-16T02:04:33;97489.97;;;10.33;78.74
20015;BME280;61787;42.022;23.078;2022-10-16T02:05:53;97492.81;;;10.28;78.84
20015;BME280;61787;42.022;23.078;2022-10-16T02:06:55;97492.66;;;10.24;78.80
20015;BME280;61787;42.022;23.078;2022-10-16T02:07:57;97491.84;;;10.24;79.20
20015;BME280;61787;42.022;23.078;2022-10-16T02:09:03;97490.91;;;10.20;78.71
20015;BME280;61787;42.022;23.078;2022-10-16T02:10:05;97492.47;;;10.21;79.30
20015;BME280;61787;42.022;23.078;2022-10-16T02:11:06;97495.16;;;10.21;78.83
20015;BME280;61787;42.022;23.078;2022-10-16T02:12:13;97493.75;;;10.23;79.02
20015;BME280;61787;42.022;23.078;2022-10-16T02:14:25;97498.00;;;10.24;79.18
20015;BME280;61787;42.022;23.078;2022-10-16T02:15:27;97501.47;;;10.25;79.65
20015;BME280;61787;42.022;23.078;2022-10-16T02:16:41;97502.56;;;10.24;80.01
20015;BME280;61787;42.022;23.078;2022-10-16T02:17:43;97501.78;;;10.23;79.63
20015;BME280;61787;42.022;23.078;2022-10-16T02:18:45;97505.41;;;10.19;79.42
20015;BME280;61787;42.022;23.078;2022-10-16T02:19:48;97498.47;;;10.18;81.07
20015;BME280;61787;42.022;23.078;2022-10-16T02:21:00;97498.47;;;10.18;81.05
20015;BME280;61787;42.022;23.078;2022-10-16T02:22:05;97496.88;;;10.17;80.62
20015;BME280;61787;42.022;23.078;2022-10-16T02:23:11;97503.03;;;10.17;80.29
20015;BME280;61787;42.022;23.078;2022-10-16T02:25:31;97504.91;;;10.17;79.41
20015;BME280;61787;42.022;23.078;2022-10-16T02:26:57;97507.28;;;10.27;79.89
20015;BME280;61787;42.022;23.078;2022-10-16T02:29:17;97503.66;;;10.32;78.86
20015;BME280;61787;42.022;23.078;2022-10-16T02:30:25;97503.22;;;10.38;78.93
20015;BME280;61787;42.022;23.078;2022-10-16T02:31:32;97511.09;;;10.43;78.45
20015;BME280;61787;42.022;23.078;2022-10-16T02:32:38;97510.50;;;10.46;78.55
20015;BME280;61787;42.022;23.078;2022-10-16T02:33:43;97511.44;;;10.50;78.29
20015;BME280;61787;42.022;23.078;2022-10-16T02:34:48;97510.78;;;10.53;77.66
20015;BME280;61787;42.022;23.078;2022-10-16T02:35:50;97518.22;;;10.56;77.57
20015;BME280;61787;42.022;23.078;2022-10-16T02:36:54;97514.56;;;10.52;78.33
20015;BME280;61787;42.022;23.078;2022-10-16T02:37:56;97515.69;;;10.43;77.83
20015;BME280;61787;42.022;23.078;2022-10-16T02:38:59;97524.97;;;10.28;79.13
20015;BME280;61787;42.022;23.078;2022-10-16T02:40:02;97522.69;;;10.04;80.76
20015;BME280;61787;42.022;23.078;2022-10-16T02:41:06;97531.81;;;9.95;81.03
20015;BME280;61787;42.022;23.078;2022-10-16T02:42:14;97534.13;;;9.79;81.86
20015;BME280;61787;42.022;23.078;2022-10-16T02:43:16;97529.81;;;9.69;82.37
20015;BME280;61787;42.022;23.078;2022-10-16T02:44:18;97534.56;;;9.72;82.47
20015;BME280;61787;42.022;23.078;2022-10-16T02:45:20;97527.34;;;9.81;82.03
20015;BME280;61787;42.022;23.078;2022-10-16T02:46:22;97530.50;;;9.83;82.34
20015;BME280;61787;42.022;23.078;2022-10-16T02:47:23;97535.06;;;9.83;81.90
20015;BME280;61787;42.022;23.078;2022-10-16T02:48:25;97534.13;;;9.79;82.40
20015;BME280;61787;42.022;23.078;2022-10-16T02:49:26;97532.50;;;9.69;82.68
20015;BME280;61787;42.022;23.078;2022-10-16T02:50:28;97527.88;;;9.61;83.74
20015;BME280;61787;42.022;23.078;2022-10-16T02:51:30;97531.19;;;9.58;83.26
20015;BME280;61787;42.022;23.078;2022-10-16T02:52:31;97535.09;;;9.52;83.96
20015;BME280;61787;42.022;23.078;2022-10-16T02:53:33;97532.69;;;9.42;83.91
20015;BME280;61787;42.022;23.078;2022-10-16T02:54:34;97530.41;;;9.27;85.29
20015;BME280;61787;42.022;23.078;2022-10-16T02:55:36;97530.03;;;9.20;84.57
20015;BME280;61787;42.022;23.078;2022-10-16T02:56:37;97531.50;;;9.04;86.37
20015;BME280;61787;42.022;23.078;2022-10-16T02:57:39;97528.72;;;8.86;86.81
20015;BME280;61787;42.022;23.078;2022-10-16T02:58:41;97539.66;;;8.76;88.33
20015;BME280;61787;42.022;23.078;2022-10-16T02:59:43;97531.38;;;8.64;88.69
20015;BME280;61787;42.022;23.078;2022-10-16T03:00:45;97535.75;;;8.60;88.71
20015;BME280;61787;42.022;23.078;2022-10-16T03:01:47;97537.13;;;8.57;89.52
20015;BME280;61787;42.022;23.078;2022-10-16T03:02:48;97531.78;;;8.57;89.43
20015;BME280;61787;42.022;23.078;2022-10-16T03:03:50;97538.41;;;8.60;89.86
20015;BME280;61787;42.022;23.078;2022-10-16T03:04:51;97537.69;;;8.68;89.27
20015;BME280;61787;42.022;23.078;2022-10-16T03:05:53;97535.84;;;8.77;89.29
20015;BME280;61787;42.022;23.078;2022-10-16T03:06:54;97536.41;;;8.88;88.49
20015;BME280;61787;42.022;23.078;2022-10-16T03:07:56;97539.75;;;8.93;88.16
20015;BME280;61787;42.022;23.078;2022-10-16T03:08:57;97537.16;;;9.02;87.71
20015;BME280;61787;42.022;23.078;2022-10-16T03:09:59;97542.44;;;9.16;86.18
20015;BME280;61787;42.022;23.078;2022-10-16T03:11:04;97543.56;;;9.23;86.13
20015;BME280;61787;42.022;23.078;2022-10-16T03:12:06;97550.09;;;9.31;85.83
20015;BME280;61787;42.022;23.078;2022-10-16T03:13:07;97551.06;;;9.35;85.21
20015;BME280;61787;42.022;23.078;2022-10-16T03:14:09;97550.13;;;9.39;85.15
20015;BME280;61787;42.022;23.078;2022-10-16T03:15:11;97548.59;;;9.47;84.62
20015;BME280;61787;42.022;23.078;2022-10-16T03:16:12;97551.94;;;9.53;83.94
20015;BME280;61787;42.022;23.078;2022-10-16T03:17:14;97554.97;;;9.60;83.71
20015;BME280;61787;42.022;23.078;2022-10-16T03:18:18;97557.81;;;9.63;83.92
20015;BME280;61787;42.022;23.078;2022-10-16T03:19:19;97555.63;;;9.65;83.05
20015;BME280;61787;42.022;23.078;2022-10-16T03:20:21;97562.56;;;9.66;83.15
20015;BME280;61787;42.022;23.078;2022-10-16T03:21:22;97564.63;;;9.69;83.60
20015;BME280;61787;42.022;23.078;2022-10-16T03:22:24;97561.34;;;9.72;83.01
20015;BME280;61787;42.022;23.078;2022-10-16T03:23:25;97551.56;;;9.76;82.61
20015;BME280;61787;42.022;23.078;2022-10-16T03:24:27;97550.97;;;9.79;82.21
20015;BME280;61787;42.022;23.078;2022-10-16T03:25:28;97546.38;;;9.80;82.48
20015;BME280;61787;42.022;23.078;2022-10-16T03:26:30;97557.09;;;9.80;82.60
20015;BME280;61787;42.022;23.078;2022-10-16T03:27:32;97544.81;;;9.79;82.22
20015;BME280;61787;42.022;23.078;2022-10-16T03:28:33;97544.34;;;9.85;82.10
20015;BME280;61787;42.022;23.078;2022-10-16T03:29:35;97544.72;;;9.93;81.91
20015;BME280;61787;42.022;23.078;2022-10-16T03:30:36;97545.72;;;10.05;79.68
20015;BME280;61787;42.022;23.078;2022-10-16T03:31:38;97541.47;;;10.13;79.55
20015;BME280;61787;42.022;23.078;2022-10-16T03:32:39;97542.13;;;10.18;79.64
20015;BME280;61787;42.022;23.078;2022-10-16T03:33:41;97543.25;;;10.26;79.28
20015;BME280;61787;42.022;23.078;2022-10-16T03:34:43;97544.03;;;10.26;78.12
20015;BME280;61787;42.022;23.078;2022-10-16T03:35:51;97548.59;;;10.26;78.35
20015;BME280;61787;42.022;23.078;2022-10-16T03:36:53;97545.78;;;10.31;77.77
20015;BME280;61787;42.022;23.078;2022-10-16T03:37:55;97540.41;;;10.31;76.71
20015;BME280;61787;42.022;23.078;2022-10-16T03:38:57;97548.00;;;10.29;78.43
20015;BME280;61787;42.022;23.078;2022-10-16T03:39:59;97546.56;;;10.23;77.53
20015;BME280;61787;42.022;23.078;2022-10-16T03:41:00;97548.75;;;10.21;77.91
20015;BME280;61787;42.022;23.078;2022-10-16T03:42:02;97544.50;;;10.20;78.91
20015;BME280;61787;42.022;23.078;2022-10-16T03:43:04;97548.28;;;10.19;78.52
20015;BME280;61787;42.022;23.078;2022-10-16T03:44:05;97549.09;;;10.19;78.16
20015;BME280;61787;42.022;23.078;2022-10-16T03:45:07;97546.84;;;10.21;78.50
20015;BME280;61787;42.022;23.078;2022-10-16T03:46:09;97541.50;;;10.21;78.24
20015;BME280;61787;42.022;23.078;2022-10-16T03:47:11;97535.69;;;10.19;77.64
20015;BME280;61787;42.022;23.078;2022-10-16T03:48:13;97544.50;;;10.20;77.66
20015;BME280;61787;42.022;23.078;2022-10-16T03:49:14;97552.06;;;10.18;77.30
20015;BME280;61787;42.022;23.078;2022-10-16T03:50:16;97545.91;;;10.17;77.45
20015;BME280;61787;42.022;23.078;2022-10-16T03:51:18;97544.13;;;10.13;77.36
20015;BME280;61787;42.022;23.078;2022-10-16T03:52:19;97547.91;;;10.12;77.89
20015;BME280;61787;42.022;23.078;2022-10-16T03:53:21;97538.78;;;10.13;78.00
20015;BME280;61787;42.022;23.078;2022-10-16T03:54:22;97550.47;;;10.17;77.54
20015;BME280;61787;42.022;23.078;2022-10-16T03:55:24;97548.28;;;10.19;77.36
20015;BME280;61787;42.022;23.078;2022-10-16T03:56:26;97549.25;;;10.23;76.84
20015;BME280;61787;42.022;23.078;2022-10-16T03:57:27;97547.50;;;10.27;77.08
20015;BME280;61787;42.022;23.078;2022-10-16T03:58:30;97545.78;;;10.31;76.95
20015;BME280;61787;42.022;23.078;2022-10-16T03:59:31;97548.16;;;10.33;75.42
20015;BME280;61787;42.022;23.078;2022-10-16T04:00:33;97550.84;;;10.33;75.95
20015;BME280;61787;42.022;23.078;2022-10-16T04:01:36;97544.69;;;10.32;75.97
20015;BME280;61787;42.022;23.078;2022-10-16T04:02:37;97537.72;;;10.31;75.50
20015;BME280;61787;42.022;23.078;2022-10-16T04:03:39;97544.69;;;10.32;75.65
20015;BME280;61787;42.022;23.078;2022-10-16T04:04:41;97545.66;;;10.36;75.49
20015;BME280;61787;42.022;23.078;2022-10-16T04:05:42;97544.53;;;10.37;75.63
20015;BME280;61787;42.022;23.078;2022-10-16T04:06:44;97549.44;;;10.35;75.42
20015;BME280;61787;42.022;23.078;2022-10-16T04:07:45;97542.97;;;10.36;75.92
20015;BME280;61787;42.022;23.078;2022-10-16T04:08:47;97551.13;;;10.31;75.24
20015;BME280;61787;42.022;23.078;2022-10-16T04:09:48;97557.13;;;10.28;75.96
20015;BME280;61787;42.022;23.078;2022-10-16T04:10:50;97546.50;;;10.14;75.94
20015;BME280;61787;42.022;23.078;2022-10-16T04:11:52;97554.84;;;10.13;76.10
20015;BME280;61787;42.022;23.078;2022-10-16T04:12:53;97555.66;;;10.13;76.60
20015;BME280;61787;42.022;23.078;2022-10-16T04:13:58;97552.06;;;10.18;75.66
20015;BME280;61787;42.022;23.078;2022-10-16T04:15:00;97555.03;;;10.16;76.32
20015;BME280;61787;42.022;23.078;2022-10-16T04:16:01;97562.41;;;10.11;76.27
20015;BME280;61787;42.022;23.078;2022-10-16T04:17:03;97563.59;;;9.88;78.10
20015;BME280;61787;42.022;23.078;2022-10-16T04:18:05;97560.56;;;9.80;78.22
20015;BME280;61787;42.022;23.078;2022-10-16T04:19:07;97559.59;;;9.76;78.67
20015;BME280;61787;42.022;23.078;2022-10-16T04:20:08;97561.50;;;9.76;78.41
20015;BME280;61787;42.022;23.078;2022-10-16T04:21:10;97555.03;;;9.68;78.25
20015;BME280;61787;42.022;23.078;2022-10-16T04:22:12;97554.97;;;9.60;78.05
20015;BME280;61787;42.022;23.078;2022-10-16T04:23:14;97549.56;;;9.51;78.43
20015;BME280;61787;42.022;23.078;2022-10-16T04:24:16;97554.56;;;9.44;78.50
20015;BME280;61787;42.022;23.078;2022-10-16T04:25:17;97549.22;;;9.44;78.69
20015;BME280;61787;42.022;23.078;2022-10-16T04:26:19;97555.19;;;9.41;79.21
20015;BME280;61787;42.022;23.078;2022-10-16T04:27:20;97549.78;;;9.32;80.36
20015;BME280;61787;42.022;23.078;2022-10-16T04:28:22;97548.38;;;9.35;80.46
20015;BME280;61787;42.022;23.078;2022-10-16T04:29:23;97549.97;;;9.36;80.28
20015;BME280;61787;42.022;23.078;2022-10-16T04:30:25;97547.13;;;9.32;81.04
20015;BME280;61787;42.022;23.078;2022-10-16T04:31:27;97553.69;;;9.26;80.96
20015;BME280;61787;42.022;23.078;2022-10-16T04:32:28;97554.47;;;9.27;81.72
20015;BME280;61787;42.022;23.078;2022-10-16T04:33:30;97552.28;;;9.29;80.58
20015;BME280;61787;42.022;23.078;2022-10-16T04:34:31;97552.47;;;9.32;81.24
20015;BME280;61787;42.022;23.078;2022-10-16T04:35:33;97549.97;;;9.36;81.53
20015;BME280;61787;42.022;23.078;2022-10-16T04:36:35;97557.88;;;9.41;80.70
20015;BME280;61787;42.022;23.078;2022-10-16T04:37:36;97553.13;;;9.38;81.14
20015;BME280;61787;42.022;23.078;2022-10-16T04:38:38;97558.41;;;9.29;80.45
20015;BME280;61787;42.022;23.078;2022-10-16T04:39:40;97549.78;;;9.10;81.84
20015;BME280;61787;42.022;23.078;2022-10-16T04:40:42;97557.53;;;9.12;82.20
20015;BME280;61787;42.022;23.078;2022-10-16T04:41:44;97554.19;;;9.06;82.06
20015;BME280;61787;42.022;23.078;2022-10-16T04:42:45;97548.53;;;9.08;83.26
20015;BME280;61787;42.022;23.078;2022-10-16T04:43:47;97555.28;;;9.05;83.21
20015;BME280;61787;42.022;23.078;2022-10-16T04:44:48;97557.94;;;9.05;82.99
20015;BME280;61787;42.022;23.078;2022-10-16T04:45:50;97556.75;;;9.11;82.56
20015;BME280;61787;42.022;23.078;2022-10-16T04:46:52;97561.47;;;9.14;82.27
20015;BME280;61787;42.022;23.078;2022-10-16T04:47:57;97556.56;;;9.08;82.25
20015;BME280;61787;42.022;23.078;2022-10-16T04:48:58;97555.38;;;8.78;83.37
20015;BME280;61787;42.022;23.078;2022-10-16T04:50:00;97553.53;;;8.65;84.69
20015;BME280;61787;42.022;23.078;2022-10-16T04:51:03;97549.00;;;8.65;85.26
20015;BME280;61787;42.022;23.078;2022-10-16T04:52:05;97552.13;;;8.67;84.73
20015;BME280;61787;42.022;23.078;2022-10-16T04:53:07;97549.97;;;8.69;84.33
20015;BME280;61787;42.022;23.078;2022-10-16T04:54:09;97549.56;;;8.76;83.91
20015;BME280;61787;42.022;23.078;2022-10-16T04:55:11;97558.72;;;8.83;83.61
20015;BME280;61787;42.022;23.078;2022-10-16T04:56:12;97555.00;;;8.93;83.42
20015;BME280;61787;42.022;23.078;2022-10-16T04:57:14;97553.50;;;9.01;82.18
20015;BME280;61787;42.022;23.078;2022-10-16T04:58:16;97565.06;;;9.10;81.99
20015;BME280;61787;42.022;23.078;2022-10-16T04:59:18;97557.28;;;9.22;81.63
20015;BME280;61787;42.022;23.078;2022-10-16T05:00:20;97564.56;;;9.30;80.70
20015;BME280;61787;42.022;23.078;2022-10-16T05:01:22;97564.94;;;9.37;80.06
20015;BME280;61787;42.022;23.078;2022-10-16T05:02:23;97563.72;;;9.43;80.32
20015;BME280;61787;42.022;23.078;2022-10-16T05:03:25;97566.06;;;9.45;79.30
20015;BME280;61787;42.022;23.078;2022-10-16T05:04:27;97562.47;;;9.49;79.95
20015;BME280;61787;42.022;23.078;2022-10-16T05:05:28;97569.41;;;9.50;78.59
20015;BME280;61787;42.022;23.078;2022-10-16T05:06:30;97572.56;;;9.52;78.66
20015;BME280;61787;42.022;23.078;2022-10-16T05:07:31;97568.00;;;9.53;78.01
20015;BME280;61787;42.022;23.078;2022-10-16T05:08:33;97577.13;;;9.52;77.00
20015;BME280;61787;42.022;23.078;2022-10-16T05:09:35;97564.44;;;9.35;76.95
20015;BME280;61787;42.022;23.078;2022-10-16T05:10:36;97566.91;;;9.23;77.88
20015;BME280;61787;42.022;23.078;2022-10-16T05:11:38;97569.38;;;9.19;78.07
20015;BME280;61787;42.022;23.078;2022-10-16T05:12:39;97567.34;;;9.25;79.25
20015;BME280;61787;42.022;23.078;2022-10-16T05:13:41;97576.84;;;9.31;78.83
20015;BME280;61787;42.022;23.078;2022-10-16T05:14:42;97574.03;;;9.36;78.95
20015;BME280;61787;42.022;23.078;2022-10-16T05:15:47;97574.72;;;9.41;79.24
20015;BME280;61787;42.022;23.078;2022-10-16T05:16:49;97575.38;;;9.47;79.57
20015;BME280;61787;42.022;23.078;2022-10-16T05:17:54;97575.72;;;9.54;79.09
20015;BME280;61787;42.022;23.078;2022-10-16T05:18:56;97577.50;;;9.59;79.09
20015;BME280;61787;42.022;23.078;2022-10-16T05:20:17;97582.41;;;9.65;79.25
20015;BME280;61787;42.022;23.078;2022-10-16T05:21:19;97584.94;;;9.70;79.62
20015;BME280;61787;42.022;23.078;2022-10-16T05:22:21;97585.94;;;9.74;79.01
20015;BME280;61787;42.022;23.078;2022-10-16T05:23:23;97585.31;;;9.77;79.76
20015;BME280;61787;42.022;23.078;2022-10-16T05:24:25;97582.97;;;9.84;78.83
20015;BME280;61787;42.022;23.078;2022-10-16T05:25:26;97584.91;;;9.93;79.30
20015;BME280;61787;42.022;23.078;2022-10-16T05:26:28;97580.97;;;9.99;78.52
20015;BME280;61787;42.022;23.078;2022-10-16T05:27:29;97589.47;;;10.01;78.99
20015;BME280;61787;42.022;23.078;2022-10-16T05:28:31;97583.06;;;10.10;78.43
20015;BME280;61787;42.022;23.078;2022-10-16T05:29:33;97588.59;;;10.14;78.10
20015;BME280;61787;42.022;23.078;2022-10-16T05:30:37;97585.91;;;10.14;78.41
20015;BME280;61787;42.022;23.078;2022-10-16T05:31:38;97593.47;;;10.12;78.21
20015;BME280;61787;42.022;23.078;2022-10-16T05:32:40;97593.00;;;10.10;78.32
20015;BME280;61787;42.022;23.078;2022-10-16T05:33:41;97588.44;;;10.10;79.10
20015;BME280;61787;42.022;23.078;2022-10-16T05:34:45;97597.56;;;10.09;79.84
20015;BME280;61787;42.022;23.078;2022-10-16T05:35:47;97591.72;;;10.07;79.06
20015;BME280;61787;42.022;23.078;2022-10-16T05:36:49;97598.97;;;10.07;79.26
20015;BME280;61787;42.022;23.078;2022-10-16T05:37:50;97598.97;;;10.07;79.73
20015;BME280;61787;42.022;23.078;2022-10-16T05:38:52;97603.72;;;10.10;80.34
20015;BME280;61787;42.022;23.078;2022-10-16T05:39:53;97607.84;;;10.16;79.59
20015;BME280;61787;42.022;23.078;2022-10-16T05:40:55;97611.81;;;10.18;79.49
20015;BME280;61787;42.022;23.078;2022-10-16T05:41:57;97603.47;;;10.20;78.86
20015;BME280;61787;42.022;23.078;2022-10-16T05:42:59;97607.09;;;10.24;79.00
20015;BME280;61787;42.022;23.078;2022-10-16T05:44:04;97609.16;;;10.27;79.09
20015;BME280;61787;42.022;23.078;2022-10-16T05:45:06;97606.81;;;10.34;78.95
20015;BME280;61787;42.022;23.078;2022-10-16T05:46:09;97610.63;;;10.42;77.70
20015;BME280;61787;42.022;23.078;2022-10-16T05:47:12;97605.75;;;10.52;78.28
20015;BME280;61787;42.022;23.078;2022-10-16T05:48:14;97609.41;;;10.56;78.37
20015;BME280;61787;42.022;23.078;2022-10-16T05:49:16;97606.25;;;10.63;78.03
20015;BME280;61787;42.022;23.078;2022-10-16T05:50:18;97606.88;;;10.68;78.15
20015;BME280;61787;42.022;23.078;2022-10-16T05:51:19;97606.88;;;10.68;78.26